sensor_id;sensor_type;location;lat;lon;timestamp;P1;durP1;ratioP1;P2;durP2;ratioP2
68583;SDS011;55557;49.220;11.150;2022-12-07T00:00:48;7.47;;;5.43;;
68583;SDS011;55557;49.220;11.150;2022-12-07T00:03:14;5.97;;;4.53;;
68583;SDS011;55557;49.220;11.150;2022-12-07T00:05:40;7.23;;;5.50;;
68583;SDS011;55557;49.220;11.150;2022-12-07T00:08:06;8.70;;;4.83;;
68583;SDS011;55557;49.220;11.150;2022-12-07T00:10:33;6.87;;;4.80;;
68583;SDS011;55557;49.220;11.150;2022-12-07T00:12:59;7.83;;;5.63;;
68583;SDS011;55557;49.220;11.150;2022-12-07T00:15:25;8.10;;;4.20;;
68583;SDS011;55557;49.220;11.150;2022-12-07T00:17:51;6.57;;;5.27;;
68583;SDS011;55557;49.220;11.150;2022-12-07T00:20:17;7.27;;;5.07;;
68583;SDS011;55557;49.220;11.150;2022-12-07T00:22:44;6.00;;;5.17;;
68583;SDS011;55557;49.220;11.150;2022-12-07T00:25:10;7.20;;;5.30;;
68583;SDS011;55557;49.220;11.150;2022-12-07T00:27:36;7.63;;;5.67;;
68583;SDS011;55557;49.220;11.150;2022-12-07T00:30:02;7.53;;;6.07;;
68583;SDS011;55557;49.220;11.150;2022-12-07T00:32:28;5.90;;;4.57;;
68583;SDS011;55557;49.220;11.150;2022-12-07T00:34:54;7.63;;;5.40;;
68583;SDS011;55557;49.220;11.150;2022-12-07T00:37:20;7.23;;;5.50;;
68583;SDS011;55557;49.220;11.150;2022-12-07T00:39:46;7.47;;;5.50;;
68583;SDS011;55557;49.220;11.150;2022-12-07T00:42:12;7.70;;;5.50;;
68583;SDS011;55557;49.220;11.150;2022-12-07T00:44:38;7.57;;;5.03;;
68583;SDS011;55557;49.220;11.150;2022-12-07T00:47:04;7.03;;;5.50;;
68583;SDS011;55557;49.220;11.150;2022-12-07T00:49:30;8.07;;;5.47;;
68583;SDS011;55557;49.220;11.150;2022-12-07T00:51:56;9.80;;;6.63;;
68583;SDS011;55557;49.220;11.150;2022-12-07T00:54:22;7.63;;;5.97;;
68583;SDS011;55557;49.220;11.150;2022-12-07T00:56:48;6.50;;;5.40;;
68583;SDS011;55557;49.220;11.150;2022-12-07T00:59:14;7.23;;;5.40;;
68583;SDS011;55557;49.220;11.150;2022-12-07T01:01:40;6.97;;;5.90;;
68583;SDS011;55557;49.220;11.150;2022-12-07T01:04:06;8.73;;;6.33;;
68583;SDS011;55557;49.220;11.150;2022-12-07T01:06:35;8.53;;;6.17;;
68583;SDS011;55557;49.220;11.150;2022-12-07T01:09:01;7.27;;;6.30;;
68583;SDS011;55557;49.220;11.150;2022-12-07T01:11:28;7.20;;;5.70;;
68583;SDS011;55557;49.220;11.150;2022-12-07T01:13:54;7.07;;;5.83;;
68583;SDS011;55557;49.220;11.150;2022-12-07T01:16:22;7.53;;;5.40;;
68583;SDS011;55557;49.220;11.150;2022-12-07T01:18:49;9.33;;;6.10;;
68583;SDS011;55557;49.220;11.150;2022-12-07T01:21:20;7.43;;;5.90;;
68583;SDS011;55557;49.220;11.150;2022-12-07T01:23:46;8.53;;;6.40;;
68583;SDS011;55557;49.220;11.150;2022-12-07T01:26:15;7.13;;;6.23;;
68583;SDS011;55557;49.220;11.150;2022-12-07T01:28:41;7.53;;;5.60;;
68583;SDS011;55557;49.220;11.150;2022-12-07T01:31:09;9.60;;;5.63;;
68583;SDS011;55557;49.220;11.150;2022-12-07T01:33:36;7.20;;;5.90;;
68583;SDS011;55557;49.220;11.150;2022-12-07T01:36:03;9.07;;;6.97;;
68583;SDS011;55557;49.220;11.150;2022-12-07T01:38:30;8.80;;;6.47;;
68583;SDS011;55557;49.220;11.150;2022-12-07T01:40:57;7.27;;;5.60;;
68583;SDS011;55557;49.220;11.150;2022-12-07T01:43:23;8.53;;;5.93;;
68583;SDS011;55557;49.220;11.150;2022-12-07T01:45:50;9.47;;;6.17;;
68583;SDS011;55557;49.220;11.150;2022-12-07T01:48:16;12.17;;;5.97;;
68583;SDS011;55557;49.220;11.150;2022-12-07T01:50:44;9.57;;;6.87;;
68583;SDS011;55557;49.220;11.150;2022-12-07T01:53:10;8.50;;;6.87;;
68583;SDS011;55557;49.220;11.150;2022-12-07T01:55:38;8.37;;;6.40;;
68583;SDS011;55557;49.220;11.150;2022-12-07T01:58:05;8.67;;;6.27;;
68583;SDS011;55557;49.220;11.150;2022-12-07T02:00:32;8.70;;;6.50;;
68583;SDS011;55557;49.220;11.150;2022-12-07T02:03:04;7.90;;;6.30;;
68583;SDS011;55557;49.220;11.150;2022-12-07T02:05:30;7.93;;;5.77;;
68583;SDS011;55557;49.220;11.150;2022-12-07T02:07:57;9.37;;;7.13;;
68583;SDS011;55557;49.220;11.150;2022-12-07T02:10:25;8.57;;;6.07;;
68583;SDS011;55557;49.220;11.150;2022-12-07T02:12:56;8.93;;;6.50;;
68583;SDS011;55557;49.220;11.150;2022-12-07T02:15:26;7.50;;;6.20;;
68583;SDS011;55557;49.220;11.150;2022-12-07T02:28:26;10.43;;;6.07;;
68583;SDS011;55557;49.220;11.150;2022-12-07T02:30:54;9.17;;;6.17;;
68583;SDS011;55557;49.220;11.150;2022-12-07T02:33:41;7.90;;;6.00;;
68583;SDS011;55557;49.220;11.150;2022-12-07T02:36:10;7.27;;;5.70;;
68583;SDS011;55557;49.220;11.150;2022-12-07T02:38:38;8.77;;;6.33;;
68583;SDS011;55557;49.220;11.150;2022-12-07T02:41:07;10.60;;;6.50;;
68583;SDS011;55557;49.220;11.150;2022-12-07T02:43:34;8.13;;;6.20;;
68583;SDS011;55557;49.220;11.150;2022-12-07T02:46:02;14.23;;;6.13;;
68583;SDS011;55557;49.220;11.150;2022-12-07T02:48:29;10.17;;;7.93;;
68583;SDS011;55557;49.220;11.150;2022-12-07T02:50:57;7.83;;;6.30;;
68583;SDS011;55557;49.220;11.150;2022-12-07T02:56:03;9.17;;;7.13;;
68583;SDS011;55557;49.220;11.150;2022-12-07T02:58:49;8.90;;;6.87;;
68583;SDS011;55557;49.220;11.150;2022-12-07T03:03:43;10.60;;;8.07;;
68583;SDS011;55557;49.220;11.150;2022-12-07T03:06:16;10.37;;;7.33;;
68583;SDS011;55557;49.220;11.150;2022-12-07T03:09:05;9.73;;;6.77;;
68583;SDS011;55557;49.220;11.150;2022-12-07T03:11:36;9.83;;;7.10;;
68583;SDS011;55557;49.220;11.150;2022-12-07T03:14:11;10.17;;;7.10;;
68583;SDS011;55557;49.220;11.150;2022-12-07T03:16:41;11.93;;;6.83;;
68583;SDS011;55557;49.220;11.150;2022-12-07T03:19:10;8.63;;;6.57;;
68583;SDS011;55557;49.220;11.150;2022-12-07T03:21:38;10.90;;;7.33;;
68583;SDS011;55557;49.220;11.150;2022-12-07T03:24:12;9.47;;;7.07;;
68583;SDS011;55557;49.220;11.150;2022-12-07T03:26:40;10.93;;;7.10;;
68583;SDS011;55557;49.220;11.150;2022-12-07T03:29:14;11.67;;;7.73;;
68583;SDS011;55557;49.220;11.150;2022-12-07T03:31:43;9.47;;;7.27;;
68583;SDS011;55557;49.220;11.150;2022-12-07T03:34:14;10.50;;;7.40;;
68583;SDS011;55557;49.220;11.150;2022-12-07T03:37:00;8.40;;;7.03;;
68583;SDS011;55557;49.220;11.150;2022-12-07T03:39:45;10.33;;;7.27;;
68583;SDS011;55557;49.220;11.150;2022-12-07T03:42:14;11.13;;;7.27;;
68583;SDS011;55557;49.220;11.150;2022-12-07T03:44:40;12.00;;;7.00;;
68583;SDS011;55557;49.220;11.150;2022-12-07T03:47:15;10.70;;;7.30;;
68583;SDS011;55557;49.220;11.150;2022-12-07T03:50:21;12.07;;;8.40;;
68583;SDS011;55557;49.220;11.150;2022-12-07T03:52:44;11.43;;;7.50;;
68583;SDS011;55557;49.220;11.150;2022-12-07T03:55:29;10.30;;;7.07;;
68583;SDS011;55557;49.220;11.150;2022-12-07T03:57:57;12.87;;;8.13;;
68583;SDS011;55557;49.220;11.150;2022-12-07T04:00:25;11.00;;;7.77;;
68583;SDS011;55557;49.220;11.150;2022-12-07T04:02:52;10.97;;;7.23;;
68583;SDS011;55557;49.220;11.150;2022-12-07T04:05:18;11.67;;;7.37;;
68583;SDS011;55557;49.220;11.150;2022-12-07T04:07:44;12.97;;;8.53;;
68583;SDS011;55557;49.220;11.150;2022-12-07T04:10:11;10.93;;;8.27;;
68583;SDS011;55557;49.220;11.150;2022-12-07T04:12:37;9.57;;;6.90;;
68583;SDS011;55557;49.220;11.150;2022-12-07T04:15:03;10.80;;;7.53;;
68583;SDS011;55557;49.220;11.150;2022-12-07T04:17:29;13.73;;;7.93;;
68583;SDS011;55557;49.220;11.150;2022-12-07T04:19:55;12.10;;;7.73;;
68583;SDS011;55557;49.220;11.150;2022-12-07T04:22:22;11.97;;;8.23;;
68583;SDS011;55557;49.220;11.150;2022-12-07T04:24:48;10.17;;;6.17;;
68583;SDS011;55557;49.220;11.150;2022-12-07T04:27:14;9.70;;;6.83;;
68583;SDS011;55557;49.220;11.150;2022-12-07T04:29:40;11.17;;;7.73;;
68583;SDS011;55557;49.220;11.150;2022-12-07T04:32:06;15.33;;;8.00;;
68583;SDS011;55557;49.220;11.150;2022-12-07T04:34:32;13.20;;;7.93;;
68583;SDS011;55557;49.220;11.150;2022-12-07T04:36:58;12.43;;;8.70;;
68583;SDS011;55557;49.220;11.150;2022-12-07T04:39:25;14.87;;;9.40;;
68583;SDS011;55557;49.220;11.150;2022-12-07T04:41:51;16.53;;;9.87;;
68583;SDS011;55557;49.220;11.150;2022-12-07T04:44:17;15.97;;;9.13;;
68583;SDS011;55557;49.220;11.150;2022-12-07T04:46:44;12.93;;;8.27;;
68583;SDS011;55557;49.220;11.150;2022-12-07T04:49:10;15.60;;;8.63;;
68583;SDS011;55557;49.220;11.150;2022-12-07T04:51:37;15.37;;;9.00;;
68583;SDS011;55557;49.220;11.150;2022-12-07T04:54:03;18.60;;;9.60;;
68583;SDS011;55557;49.220;11.150;2022-12-07T04:56:29;11.67;;;7.70;;
68583;SDS011;55557;49.220;11.150;2022-12-07T04:58:55;10.90;;;6.83;;
68583;SDS011;55557;49.220;11.150;2022-12-07T05:01:21;10.63;;;6.47;;
68583;SDS011;55557;49.220;11.150;2022-12-07T05:03:47;14.37;;;8.07;;
68583;SDS011;55557;49.220;11.150;2022-12-07T05:06:13;9.80;;;7.13;;
68583;SDS011;55557;49.220;11.150;2022-12-07T05:08:40;12.80;;;7.67;;
68583;SDS011;55557;49.220;11.150;2022-12-07T05:11:08;18.87;;;8.43;;
68583;SDS011;55557;49.220;11.150;2022-12-07T05:13:35;12.73;;;8.63;;
68583;SDS011;55557;49.220;11.150;2022-12-07T05:16:01;11.47;;;7.93;;
68583;SDS011;55557;49.220;11.150;2022-12-07T05:18:27;11.47;;;7.53;;
68583;SDS011;55557;49.220;11.150;2022-12-07T05:20:53;14.60;;;7.80;;
68583;SDS011;55557;49.220;11.150;2022-12-07T05:23:19;12.00;;;7.47;;
68583;SDS011;55557;49.220;11.150;2022-12-07T05:25:46;10.97;;;7.27;;
68583;SDS011;55557;49.220;11.150;2022-12-07T05:28:12;11.87;;;7.83;;
68583;SDS011;55557;49.220;11.150;2022-12-07T05:30:38;11.30;;;6.77;;
68583;SDS011;55557;49.220;11.150;2022-12-07T05:33:04;11.77;;;7.87;;
68583;SDS011;55557;49.220;11.150;2022-12-07T05:35:30;15.03;;;8.00;;
68583;SDS011;55557;49.220;11.150;2022-12-07T05:37:56;11.73;;;7.73;;
68583;SDS011;55557;49.220;11.150;2022-12-07T05:40:23;13.27;;;7.93;;
68583;SDS011;55557;49.220;11.150;2022-12-07T05:42:49;14.43;;;7.90;;
68583;SDS011;55557;49.220;11.150;2022-12-07T05:45:15;10.70;;;7.47;;
68583;SDS011;55557;49.220;11.150;2022-12-07T05:47:41;11.87;;;8.07;;
68583;SDS011;55557;49.220;11.150;2022-12-07T05:50:07;11.77;;;8.53;;
68583;SDS011;55557;49.220;11.150;2022-12-07T05:52:33;11.27;;;7.30;;
68583;SDS011;55557;49.220;11.150;2022-12-07T05:54:59;15.93;;;9.33;;
68583;SDS011;55557;49.220;11.150;2022-12-07T05:57:25;11.67;;;8.10;;
68583;SDS011;55557;49.220;11.150;2022-12-07T05:59:51;11.90;;;7.87;;
68583;SDS011;55557;49.220;11.150;2022-12-07T06:02:17;13.20;;;8.40;;
68583;SDS011;55557;49.220;11.150;2022-12-07T06:04:44;15.53;;;8.80;;
68583;SDS011;55557;49.220;11.150;2022-12-07T06:07:11;13.17;;;9.10;;
68583;SDS011;55557;49.220;11.150;2022-12-07T06:09:38;16.17;;;9.90;;
68583;SDS011;55557;49.220;11.150;2022-12-07T06:12:04;18.07;;;10.60;;
68583;SDS011;55557;49.220;11.150;2022-12-07T06:14:49;17.47;;;10.33;;
68583;SDS011;55557;49.220;11.150;2022-12-07T06:17:15;20.80;;;11.50;;
68583;SDS011;55557;49.220;11.150;2022-12-07T06:19:41;15.87;;;11.47;;
68583;SDS011;55557;49.220;11.150;2022-12-07T06:22:08;18.87;;;10.50;;
68583;SDS011;55557;49.220;11.150;2022-12-07T06:24:34;17.77;;;10.27;;
68583;SDS011;55557;49.220;11.150;2022-12-07T06:27:00;17.83;;;10.43;;
68583;SDS011;55557;49.220;11.150;2022-12-07T06:29:26;28.27;;;15.40;;
68583;SDS011;55557;49.220;11.150;2022-12-07T06:31:52;39.63;;;20.70;;
68583;SDS011;55557;49.220;11.150;2022-12-07T06:34:20;31.27;;;16.13;;
68583;SDS011;55557;49.220;11.150;2022-12-07T06:36:47;21.40;;;12.00;;
68583;SDS011;55557;49.220;11.150;2022-12-07T06:39:16;18.93;;;11.50;;
68583;SDS011;55557;49.220;11.150;2022-12-07T06:41:42;16.70;;;9.87;;
68583;SDS011;55557;49.220;11.150;2022-12-07T06:44:08;17.20;;;10.80;;
68583;SDS011;55557;49.220;11.150;2022-12-07T06:46:35;17.50;;;10.27;;
68583;SDS011;55557;49.220;11.150;2022-12-07T06:49:01;18.87;;;11.53;;
68583;SDS011;55557;49.220;11.150;2022-12-07T06:51:27;23.03;;;13.63;;
68583;SDS011;55557;49.220;11.150;2022-12-07T06:53:53;21.00;;;13.13;;
68583;SDS011;55557;49.220;11.150;2022-12-07T06:56:19;22.53;;;12.70;;
68583;SDS011;55557;49.220;11.150;2022-12-07T06:58:45;20.53;;;12.20;;
68583;SDS011;55557;49.220;11.150;2022-12-07T07:01:12;18.17;;;11.57;;
68583;SDS011;55557;49.220;11.150;2022-12-07T07:03:39;22.33;;;12.40;;
68583;SDS011;55557;49.220;11.150;2022-12-07T07:06:05;18.77;;;10.87;;
68583;SDS011;55557;49.220;11.150;2022-12-07T07:08:32;20.10;;;11.80;;
68583;SDS011;55557;49.220;11.150;2022-12-07T07:10:58;17.63;;;11.77;;
68583;SDS011;55557;49.220;11.150;2022-12-07T07:13:24;18.27;;;11.37;;
68583;SDS011;55557;49.220;11.150;2022-12-07T07:15:51;21.90;;;12.30;;
68583;SDS011;55557;49.220;11.150;2022-12-07T07:18:17;20.10;;;11.60;;
68583;SDS011;55557;49.220;11.150;2022-12-07T07:20:43;21.20;;;11.07;;
68583;SDS011;55557;49.220;11.150;2022-12-07T07:23:09;18.90;;;11.37;;
68583;SDS011;55557;49.220;11.150;2022-12-07T07:25:35;22.17;;;11.73;;
68583;SDS011;55557;49.220;11.150;2022-12-07T07:28:01;18.90;;;10.43;;
68583;SDS011;55557;49.220;11.150;2022-12-07T07:30:27;19.00;;;10.67;;
68583;SDS011;55557;49.220;11.150;2022-12-07T07:33:00;19.73;;;11.00;;
68583;SDS011;55557;49.220;11.150;2022-12-07T07:35:27;14.83;;;9.93;;
68583;SDS011;55557;49.220;11.150;2022-12-07T07:37:53;22.07;;;12.83;;
68583;SDS011;55557;49.220;11.150;2022-12-07T07:40:19;25.03;;;14.77;;
68583;SDS011;55557;49.220;11.150;2022-12-07T07:42:49;30.27;;;16.73;;
68583;SDS011;55557;49.220;11.150;2022-12-07T07:45:15;27.13;;;16.47;;
68583;SDS011;55557;49.220;11.150;2022-12-07T07:47:41;21.07;;;13.33;;
68583;SDS011;55557;49.220;11.150;2022-12-07T07:50:07;24.63;;;13.20;;
68583;SDS011;55557;49.220;11.150;2022-12-07T07:52:33;20.70;;;12.07;;
68583;SDS011;55557;49.220;11.150;2022-12-07T07:54:59;21.03;;;12.83;;
68583;SDS011;55557;49.220;11.150;2022-12-07T07:57:25;25.63;;;12.77;;
68583;SDS011;55557;49.220;11.150;2022-12-07T07:59:52;41.33;;;25.20;;
68583;SDS011;55557;49.220;11.150;2022-12-07T08:02:18;23.30;;;14.00;;
68583;SDS011;55557;49.220;11.150;2022-12-07T08:04:45;20.97;;;12.70;;
68583;SDS011;55557;49.220;11.150;2022-12-07T08:07:13;18.23;;;11.07;;
68583;SDS011;55557;49.220;11.150;2022-12-07T08:09:39;20.40;;;10.90;;
68583;SDS011;55557;49.220;11.150;2022-12-07T08:12:06;20.27;;;11.37;;
68583;SDS011;55557;49.220;11.150;2022-12-07T08:14:32;21.80;;;12.43;;
68583;SDS011;55557;49.220;11.150;2022-12-07T08:16:59;20.97;;;11.30;;
68583;SDS011;55557;49.220;11.150;2022-12-07T08:19:25;20.23;;;12.53;;
68583;SDS011;55557;49.220;11.150;2022-12-07T08:21:51;17.90;;;11.23;;
68583;SDS011;55557;49.220;11.150;2022-12-07T08:24:17;22.77;;;13.33;;
68583;SDS011;55557;49.220;11.150;2022-12-07T08:26:43;22.20;;;14.07;;
68583;SDS011;55557;49.220;11.150;2022-12-07T08:29:09;24.40;;;12.97;;
68583;SDS011;55557;49.220;11.150;2022-12-07T08:31:35;21.40;;;12.47;;
68583;SDS011;55557;49.220;11.150;2022-12-07T08:34:01;23.00;;;12.37;;
68583;SDS011;55557;49.220;11.150;2022-12-07T08:36:27;21.33;;;12.80;;
68583;SDS011;55557;49.220;11.150;2022-12-07T08:38:53;23.67;;;12.97;;
68583;SDS011;55557;49.220;11.150;2022-12-07T08:41:19;27.77;;;15.07;;
68583;SDS011;55557;49.220;11.150;2022-12-07T08:43:45;26.37;;;15.43;;
68583;SDS011;55557;49.220;11.150;2022-12-07T08:46:13;33.03;;;18.60;;
68583;SDS011;55557;49.220;11.150;2022-12-07T08:48:50;24.97;;;14.13;;
68583;SDS011;55557;49.220;11.150;2022-12-07T08:51:17;25.90;;;15.73;;
68583;SDS011;55557;49.220;11.150;2022-12-07T08:53:43;21.47;;;12.47;;
68583;SDS011;55557;49.220;11.150;2022-12-07T08:56:09;19.47;;;12.13;;
68583;SDS011;55557;49.220;11.150;2022-12-07T08:58:36;22.93;;;13.47;;
68583;SDS011;55557;49.220;11.150;2022-12-07T09:01:03;24.20;;;13.43;;
68583;SDS011;55557;49.220;11.150;2022-12-07T09:03:29;18.20;;;12.13;;
68583;SDS011;55557;49.220;11.150;2022-12-07T09:05:55;20.87;;;11.73;;
68583;SDS011;55557;49.220;11.150;2022-12-07T09:08:22;18.70;;;12.13;;
68583;SDS011;55557;49.220;11.150;2022-12-07T09:10:49;18.53;;;12.37;;
68583;SDS011;55557;49.220;11.150;2022-12-07T09:13:15;21.30;;;12.83;;
68583;SDS011;55557;49.220;11.150;2022-12-07T09:15:41;20.13;;;12.17;;
68583;SDS011;55557;49.220;11.150;2022-12-07T09:18:07;20.40;;;11.93;;
68583;SDS011;55557;49.220;11.150;2022-12-07T09:20:33;19.20;;;12.93;;
68583;SDS011;55557;49.220;11.150;2022-12-07T09:22:59;18.33;;;11.10;;
68583;SDS011;55557;49.220;11.150;2022-12-07T09:25:25;17.23;;;11.50;;
68583;SDS011;55557;49.220;11.150;2022-12-07T09:27:55;22.37;;;12.67;;
68583;SDS011;55557;49.220;11.150;2022-12-07T09:30:21;18.97;;;11.50;;
68583;SDS011;55557;49.220;11.150;2022-12-07T09:32:47;16.53;;;10.80;;
68583;SDS011;55557;49.220;11.150;2022-12-07T09:35:16;18.77;;;10.63;;
68583;SDS011;55557;49.220;11.150;2022-12-07T09:37:42;17.13;;;10.53;;
68583;SDS011;55557;49.220;11.150;2022-12-07T09:40:09;18.20;;;11.20;;
68583;SDS011;55557;49.220;11.150;2022-12-07T09:42:36;15.23;;;9.10;;
68583;SDS011;55557;49.220;11.150;2022-12-07T09:45:04;16.37;;;10.00;;
68583;SDS011;55557;49.220;11.150;2022-12-07T09:47:31;13.83;;;8.90;;
68583;SDS011;55557;49.220;11.150;2022-12-07T09:50:06;12.53;;;8.63;;
68583;SDS011;55557;49.220;11.150;2022-12-07T09:52:33;15.73;;;9.47;;
68583;SDS011;55557;49.220;11.150;2022-12-07T09:54:59;15.47;;;8.47;;
68583;SDS011;55557;49.220;11.150;2022-12-07T09:57:30;17.97;;;10.23;;
68583;SDS011;55557;49.220;11.150;2022-12-07T09:59:59;16.40;;;8.43;;
68583;SDS011;55557;49.220;11.150;2022-12-07T10:05:03;13.13;;;8.20;;
68583;SDS011;55557;49.220;11.150;2022-12-07T10:07:29;12.93;;;8.23;;
68583;SDS011;55557;49.220;11.150;2022-12-07T10:09:55;11.57;;;7.17;;
68583;SDS011;55557;49.220;11.150;2022-12-07T10:12:21;10.97;;;7.00;;
68583;SDS011;55557;49.220;11.150;2022-12-07T10:15:05;13.50;;;7.30;;
68583;SDS011;55557;49.220;11.150;2022-12-07T10:22:53;12.80;;;7.43;;
68583;SDS011;55557;49.220;11.150;2022-12-07T10:25:20;10.40;;;6.50;;
68583;SDS011;55557;49.220;11.150;2022-12-07T10:27:57;9.67;;;6.50;;
68583;SDS011;55557;49.220;11.150;2022-12-07T10:30:23;15.57;;;8.13;;
68583;SDS011;55557;49.220;11.150;2022-12-07T10:32:49;11.23;;;7.43;;
68583;SDS011;55557;49.220;11.150;2022-12-07T10:35:19;14.07;;;7.17;;
68583;SDS011;55557;49.220;11.150;2022-12-07T10:37:46;11.23;;;6.57;;
68583;SDS011;55557;49.220;11.150;2022-12-07T10:40:34;13.83;;;8.13;;
68583;SDS011;55557;49.220;11.150;2022-12-07T10:45:28;10.43;;;6.77;;
68583;SDS011;55557;49.220;11.150;2022-12-07T10:55:40;12.57;;;7.97;;
68583;SDS011;55557;49.220;11.150;2022-12-07T11:00:37;11.43;;;6.83;;
68583;SDS011;55557;49.220;11.150;2022-12-07T11:03:21;10.27;;;6.87;;
68583;SDS011;55557;49.220;11.150;2022-12-07T11:05:56;11.63;;;7.03;;
68583;SDS011;55557;49.220;11.150;2022-12-07T11:21:30;12.07;;;6.87;;
68583;SDS011;55557;49.220;11.150;2022-12-07T11:24:18;11.97;;;7.03;;
68583;SDS011;55557;49.220;11.150;2022-12-07T11:29:24;11.90;;;7.63;;
68583;SDS011;55557;49.220;11.150;2022-12-07T11:32:00;13.47;;;6.90;;
68583;SDS011;55557;49.220;11.150;2022-12-07T11:37:12;8.97;;;6.10;;
68583;SDS011;55557;49.220;11.150;2022-12-07T11:39:41;11.03;;;6.07;;
68583;SDS011;55557;49.220;11.150;2022-12-07T11:42:13;8.73;;;6.17;;
68583;SDS011;55557;49.220;11.150;2022-12-07T11:44:53;9.70;;;5.87;;
68583;SDS011;55557;49.220;11.150;2022-12-07T11:47:30;10.97;;;7.30;;
68583;SDS011;55557;49.220;11.150;2022-12-07T11:50:21;12.33;;;7.30;;
68583;SDS011;55557;49.220;11.150;2022-12-07T12:00:48;11.23;;;6.50;;
68583;SDS011;55557;49.220;11.150;2022-12-07T12:03:15;12.77;;;6.80;;
68583;SDS011;55557;49.220;11.150;2022-12-07T12:05:43;11.70;;;6.80;;
68583;SDS011;55557;49.220;11.150;2022-12-07T12:08:18;8.90;;;6.47;;
68583;SDS011;55557;49.220;11.150;2022-12-07T12:13:50;9.40;;;6.50;;
68583;SDS011;55557;49.220;11.150;2022-12-07T12:19:03;9.57;;;6.10;;
68583;SDS011;55557;49.220;11.150;2022-12-07T12:21:33;11.27;;;7.33;;
68583;SDS011;55557;49.220;11.150;2022-12-07T12:26:27;12.40;;;6.83;;
68583;SDS011;55557;49.220;11.150;2022-12-07T12:28:55;10.17;;;7.20;;
68583;SDS011;55557;49.220;11.150;2022-12-07T12:33:50;11.47;;;7.40;;
68583;SDS011;55557;49.220;11.150;2022-12-07T12:46:46;12.93;;;8.43;;
68583;SDS011;55557;49.220;11.150;2022-12-07T12:51:52;9.83;;;6.97;;
68583;SDS011;55557;49.220;11.150;2022-12-07T12:54:31;10.30;;;6.87;;
68583;SDS011;55557;49.220;11.150;2022-12-07T12:57:43;12.27;;;7.47;;
68583;SDS011;55557;49.220;11.150;2022-12-07T13:02:19;9.73;;;6.50;;
68583;SDS011;55557;49.220;11.150;2022-12-07T13:04:53;12.17;;;6.87;;
68583;SDS011;55557;49.220;11.150;2022-12-07T13:10:08;11.60;;;6.93;;
68583;SDS011;55557;49.220;11.150;2022-12-07T13:12:54;7.97;;;6.37;;
68583;SDS011;55557;49.220;11.150;2022-12-07T13:18:00;9.63;;;6.13;;
68583;SDS011;55557;49.220;11.150;2022-12-07T13:23:12;12.77;;;7.40;;
68583;SDS011;55557;49.220;11.150;2022-12-07T13:25:41;8.37;;;5.57;;
68583;SDS011;55557;49.220;11.150;2022-12-07T13:28:13;8.60;;;5.47;;
68583;SDS011;55557;49.220;11.150;2022-12-07T13:30:44;11.93;;;6.73;;
68583;SDS011;55557;49.220;11.150;2022-12-07T13:33:11;11.07;;;6.57;;
68583;SDS011;55557;49.220;11.150;2022-12-07T13:35:38;9.53;;;6.23;;
68583;SDS011;55557;49.220;11.150;2022-12-07T13:38:05;10.60;;;6.60;;
68583;SDS011;55557;49.220;11.150;2022-12-07T13:40:32;10.77;;;6.43;;
68583;SDS011;55557;49.220;11.150;2022-12-07T13:42:59;9.83;;;6.03;;
68583;SDS011;55557;49.220;11.150;2022-12-07T13:45:32;9.67;;;6.83;;
68583;SDS011;55557;49.220;11.150;2022-12-07T13:48:14;10.13;;;6.67;;
68583;SDS011;55557;49.220;11.150;2022-12-07T13:50:41;8.77;;;6.53;;
68583;SDS011;55557;49.220;11.150;2022-12-07T13:53:11;9.53;;;6.43;;
68583;SDS011;55557;49.220;11.150;2022-12-07T13:55:38;8.77;;;6.00;;
68583;SDS011;55557;49.220;11.150;2022-12-07T13:58:09;9.50;;;6.43;;
68583;SDS011;55557;49.220;11.150;2022-12-07T14:00:35;13.20;;;6.43;;
68583;SDS011;55557;49.220;11.150;2022-12-07T14:03:22;10.10;;;6.93;;
68583;SDS011;55557;49.220;11.150;2022-12-07T14:06:02;12.37;;;6.93;;
68583;SDS011;55557;49.220;11.150;2022-12-07T14:08:29;11.13;;;6.27;;
68583;SDS011;55557;49.220;11.150;2022-12-07T14:10:55;10.13;;;7.33;;
68583;SDS011;55557;49.220;11.150;2022-12-07T14:13:39;11.40;;;7.10;;
68583;SDS011;55557;49.220;11.150;2022-12-07T14:16:22;13.30;;;7.80;;
68583;SDS011;55557;49.220;11.150;2022-12-07T14:18:50;12.07;;;7.97;;
68583;SDS011;55557;49.220;11.150;2022-12-07T14:21:17;12.20;;;7.83;;
68583;SDS011;55557;49.220;11.150;2022-12-07T14:23:44;13.97;;;7.73;;
68583;SDS011;55557;49.220;11.150;2022-12-07T14:26:14;11.77;;;7.47;;
68583;SDS011;55557;49.220;11.150;2022-12-07T14:28:42;12.73;;;7.57;;
68583;SDS011;55557;49.220;11.150;2022-12-07T14:31:13;11.63;;;7.13;;
68583;SDS011;55557;49.220;11.150;2022-12-07T14:33:39;13.10;;;8.00;;
68583;SDS011;55557;49.220;11.150;2022-12-07T14:36:06;12.00;;;7.20;;
68583;SDS011;55557;49.220;11.150;2022-12-07T14:38:34;12.23;;;8.13;;
68583;SDS011;55557;49.220;11.150;2022-12-07T14:41:00;14.50;;;8.50;;
68583;SDS011;55557;49.220;11.150;2022-12-07T14:43:59;12.57;;;7.50;;
68583;SDS011;55557;49.220;11.150;2022-12-07T14:46:25;13.13;;;8.47;;
68583;SDS011;55557;49.220;11.150;2022-12-07T14:48:51;12.33;;;7.77;;
68583;SDS011;55557;49.220;11.150;2022-12-07T14:51:17;14.83;;;8.57;;
68583;SDS011;55557;49.220;11.150;2022-12-07T14:53:44;14.30;;;7.87;;
68583;SDS011;55557;49.220;11.150;2022-12-07T14:56:11;11.50;;;7.00;;
68583;SDS011;55557;49.220;11.150;2022-12-07T14:58:37;10.53;;;7.53;;
68583;SDS011;55557;49.220;11.150;2022-12-07T15:01:04;13.07;;;7.67;;
68583;SDS011;55557;49.220;11.150;2022-12-07T15:03:30;13.70;;;8.53;;
68583;SDS011;55557;49.220;11.150;2022-12-07T15:05:56;14.70;;;8.97;;
68583;SDS011;55557;49.220;11.150;2022-12-07T15:08:22;12.37;;;8.03;;
68583;SDS011;55557;49.220;11.150;2022-12-07T15:10:48;12.90;;;8.90;;
68583;SDS011;55557;49.220;11.150;2022-12-07T15:13:14;11.90;;;8.17;;
68583;SDS011;55557;49.220;11.150;2022-12-07T15:15:59;15.30;;;8.70;;
68583;SDS011;55557;49.220;11.150;2022-12-07T15:18:25;11.67;;;7.43;;
68583;SDS011;55557;49.220;11.150;2022-12-07T15:20:51;15.73;;;8.53;;
68583;SDS011;55557;49.220;11.150;2022-12-07T15:23:18;15.60;;;10.60;;
68583;SDS011;55557;49.220;11.150;2022-12-07T15:25:44;16.73;;;9.40;;
68583;SDS011;55557;49.220;11.150;2022-12-07T15:28:11;14.87;;;9.27;;
68583;SDS011;55557;49.220;11.150;2022-12-07T15:30:38;13.90;;;8.43;;
68583;SDS011;55557;49.220;11.150;2022-12-07T15:33:04;16.63;;;9.13;;
68583;SDS011;55557;49.220;11.150;2022-12-07T15:35:30;13.63;;;8.40;;
68583;SDS011;55557;49.220;11.150;2022-12-07T15:37:56;12.27;;;8.20;;
68583;SDS011;55557;49.220;11.150;2022-12-07T15:40:22;13.67;;;8.70;;
68583;SDS011;55557;49.220;11.150;2022-12-07T15:42:48;16.70;;;8.80;;
68583;SDS011;55557;49.220;11.150;2022-12-07T15:45:14;14.17;;;9.03;;
68583;SDS011;55557;49.220;11.150;2022-12-07T15:47:41;14.57;;;8.93;;
68583;SDS011;55557;49.220;11.150;2022-12-07T15:50:09;15.70;;;9.73;;
68583;SDS011;55557;49.220;11.150;2022-12-07T15:52:35;9.53;;;6.73;;
68583;SDS011;55557;49.220;11.150;2022-12-07T15:55:01;14.10;;;7.97;;
68583;SDS011;55557;49.220;11.150;2022-12-07T15:57:29;12.17;;;7.83;;
68583;SDS011;55557;49.220;11.150;2022-12-07T15:59:55;14.33;;;9.00;;
68583;SDS011;55557;49.220;11.150;2022-12-07T16:02:21;15.43;;;9.00;;
68583;SDS011;55557;49.220;11.150;2022-12-07T16:04:48;13.00;;;8.07;;